createdAt,value
2022-07-29T00:01:53.547Z,101136.94
2022-07-29T00:04:21.610Z,101132.41
2022-07-29T00:06:49.202Z,101139.16
2022-07-29T00:09:16.512Z,101143.63
2022-07-29T00:11:43.892Z,101141.50
2022-07-29T00:14:11.197Z,101140.47
2022-07-29T00:16:38.751Z,101153.22
2022-07-29T00:19:06.061Z,101161.56
2022-07-29T00:21:35.388Z,101168.22
2022-07-29T00:24:02.627Z,101160.25
2022-07-29T00:26:32.618Z,101180.22
2022-07-29T00:29:31.809Z,101155.00
2022-07-29T00:31:48.227Z,101162.44
2022-07-29T00:34:34.322Z,101169.38
2022-07-29T00:37:01.554Z,101165.03
2022-07-29T00:39:28.840Z,101161.13
2022-07-29T00:41:56.234Z,101151.84
2022-07-29T00:44:23.508Z,101153.34
2022-07-29T00:46:51.010Z,101153.16
2022-07-29T00:49:18.475Z,101158.41
2022-07-29T00:51:46.235Z,101163.13
2022-07-29T00:54:14.161Z,101163.81
2022-07-29T00:56:41.704Z,101152.50
2022-07-29T00:59:08.963Z,101147.75
2022-07-29T01:01:36.237Z,101144.72
2022-07-29T01:04:03.861Z,101139.47
2022-07-29T01:06:31.136Z,101148.69
2022-07-29T01:08:59.552Z,101140.22
2022-07-29T01:11:26.947Z,101136.63
2022-07-29T01:13:54.580Z,101146.00
2022-07-29T01:16:38.781Z,101137.75
2022-07-29T01:19:34.287Z,101128.03
2022-07-29T01:22:29.185Z,101142.28
2022-07-29T01:25:33.991Z,101139.38
2022-07-29T01:28:01.275Z,101132.66
2022-07-29T01:30:33.537Z,101134.47
2022-07-29T01:33:06.994Z,101128.56
2022-07-29T01:35:42.008Z,101131.34
2022-07-29T01:38:23.295Z,101130.09
2022-07-29T01:40:54.532Z,101127.16
2022-07-29T01:43:28.182Z,101126.25
2022-07-29T01:46:02.793Z,101129.06
2022-07-29T01:48:41.629Z,101133.47
2022-07-29T01:51:21.363Z,101130.75
2022-07-29T01:53:51.301Z,101134.03
2022-07-29T01:56:20.916Z,101131.38
2022-07-29T01:58:50.821Z,101127.44
2022-07-29T02:01:19.871Z,101127.97
2022-07-29T02:03:48.844Z,101127.72
2022-07-29T02:06:20.372Z,101120.97
2022-07-29T02:08:50.065Z,101128.13
2022-07-29T02:11:17.864Z,101122.34
2022-07-29T02:13:46.416Z,101122.25
2022-07-29T02:16:16.215Z,101117.84
2022-07-29T02:18:46.719Z,101120.50
2022-07-29T02:21:16.486Z,101130.25
2022-07-29T02:23:50.686Z,101123.88
2022-07-29T02:26:21.368Z,101125.66
2022-07-29T02:28:51.021Z,101117.59
2022-07-29T02:31:20.571Z,101124.88
2022-07-29T02:33:48.612Z,101117.53
2022-07-29T02:36:17.500Z,101120.50
2022-07-29T02:38:52.562Z,101108.59
2022-07-29T02:41:21.690Z,101105.75
2022-07-29T02:43:51.228Z,101109.09
2022-07-29T02:46:29.477Z,101105.44
2022-07-29T02:49:33.035Z,101104.91
2022-07-29T02:52:03.794Z,101104.59
2022-07-29T02:54:56.024Z,101097.63
2022-07-29T02:57:34.061Z,101102.97
2022-07-29T03:00:06.209Z,101106.28
2022-07-29T03:02:45.888Z,101102.28
2022-07-29T03:05:18.364Z,101111.34
2022-07-29T03:07:50.699Z,101118.81
2022-07-29T03:10:18.942Z,101113.56
2022-07-29T03:12:47.133Z,101114.66
2022-07-29T03:15:15.107Z,101105.81
2022-07-29T03:17:43.937Z,101098.88
2022-07-29T03:20:12.730Z,101108.09
2022-07-29T03:22:44.628Z,101101.06
2022-07-29T03:25:13.408Z,101113.81
2022-07-29T03:27:41.076Z,101109.59
2022-07-29T03:30:09.593Z,101110.88
2022-07-29T03:32:37.443Z,101113.84
2022-07-29T03:35:06.338Z,101107.28
2022-07-29T03:37:34.511Z,101116.50
2022-07-29T03:40:04.072Z,101130.28
2022-07-29T03:42:34.521Z,101119.59
2022-07-29T03:45:07.144Z,101120.75
2022-07-29T03:47:50.822Z,101123.50
2022-07-29T03:50:21.295Z,101118.44
2022-07-29T03:52:49.494Z,101116.72
2022-07-29T03:55:17.296Z,101117.06
2022-07-29T03:57:46.665Z,101115.59
2022-07-29T04:00:16.466Z,101127.97
2022-07-29T04:02:49.344Z,101125.75
2022-07-29T04:05:17.629Z,101136.25
2022-07-29T04:07:49.006Z,101143.66
2022-07-29T04:10:17.961Z,101139.19
2022-07-29T04:12:57.566Z,101138.13
2022-07-29T04:15:24.833Z,101140.56
2022-07-29T04:17:52.118Z,101139.84
2022-07-29T04:20:19.478Z,101145.72
2022-07-29T04:22:46.724Z,101138.31
2022-07-29T04:25:13.977Z,101143.22
2022-07-29T04:28:01.111Z,101135.16
2022-07-29T04:30:28.879Z,101143.25
2022-07-29T04:32:56.344Z,101145.09
2022-07-29T04:35:23.574Z,101147.00
2022-07-29T04:37:52.081Z,101152.81
2022-07-29T04:40:19.506Z,101151.19
2022-07-29T04:42:47.884Z,101165.13
2022-07-29T04:45:16.801Z,101164.91
2022-07-29T04:47:50.046Z,101165.53
2022-07-29T04:50:17.632Z,101169.38
2022-07-29T04:52:45.159Z,101168.34
2022-07-29T04:55:12.472Z,101171.41
2022-07-29T04:57:39.795Z,101174.66
2022-07-29T05:00:07.857Z,101172.34
2022-07-29T05:02:35.164Z,101176.31
2022-07-29T05:05:02.475Z,101170.09
2022-07-29T05:07:29.690Z,101176.59
2022-07-29T05:09:57.996Z,101185.59
2022-07-29T05:12:25.943Z,101174.09
2022-07-29T05:14:53.424Z,101175.59
2022-07-29T05:17:20.682Z,101190.72
2022-07-29T05:19:47.969Z,101183.56
2022-07-29T05:22:15.190Z,101182.59
2022-07-29T05:24:42.499Z,101185.66
2022-07-29T05:27:10.373Z,101191.03
2022-07-29T05:29:43.683Z,101188.53
2022-07-29T05:32:13.369Z,101190.47
2022-07-29T05:34:50.119Z,101195.44
2022-07-29T05:37:21.815Z,101190.41
2022-07-29T05:39:50.859Z,101193.75
2022-07-29T05:42:27.899Z,101189.25
2022-07-29T05:44:55.152Z,101187.13
2022-07-29T05:47:22.937Z,101192.63
2022-07-29T05:49:50.376Z,101202.16
2022-07-29T05:52:17.629Z,101201.38
2022-07-29T05:54:44.912Z,101203.53
2022-07-29T05:57:19.786Z,101207.97
2022-07-29T05:59:48.061Z,101210.75
2022-07-29T06:02:16.001Z,101219.03
2022-07-29T06:04:43.476Z,101207.88
2022-07-29T06:07:11.083Z,101213.97
2022-07-29T06:09:38.337Z,101220.91
2022-07-29T06:12:05.918Z,101214.97
2022-07-29T06:14:33.630Z,101221.19
2022-07-29T06:17:00.877Z,101224.72
2022-07-29T06:19:28.155Z,101219.03
2022-07-29T06:21:55.535Z,101214.19
2022-07-29T06:24:22.859Z,101219.81
2022-07-29T06:26:50.170Z,101217.03
2022-07-29T06:29:18.045Z,101222.13
2022-07-29T06:31:45.455Z,101222.97
2022-07-29T06:34:12.830Z,101227.69
2022-07-29T06:36:41.151Z,101227.16
2022-07-29T06:39:09.307Z,101230.44
2022-07-29T06:41:38.863Z,101225.06
2022-07-29T06:44:10.461Z,101232.41
2022-07-29T06:46:39.064Z,101230.03
2022-07-29T06:49:06.749Z,101233.34
2022-07-29T06:51:34.905Z,101233.59
2022-07-29T06:54:12.884Z,101226.75
2022-07-29T06:56:42.594Z,101224.03
2022-07-29T06:59:11.473Z,101213.84
2022-07-29T07:01:41.176Z,101210.94
2022-07-29T07:04:11.837Z,101225.63
2022-07-29T07:06:39.994Z,101230.41
2022-07-29T07:09:07.394Z,101227.72
2022-07-29T07:11:35.291Z,101226.84
2022-07-29T07:14:04.100Z,101224.72
2022-07-29T07:16:42.127Z,101228.06
2022-07-29T07:19:09.486Z,101225.94
2022-07-29T07:21:36.745Z,101228.84
2022-07-29T07:24:04.364Z,101235.31
2022-07-29T07:26:31.785Z,101232.94
2022-07-29T07:28:59.082Z,101229.75
2022-07-29T07:31:26.385Z,101233.59
2022-07-29T07:33:54.502Z,101223.78
2022-07-29T07:36:22.147Z,101217.16
2022-07-29T07:38:49.404Z,101204.84
2022-07-29T07:41:16.740Z,101214.59
2022-07-29T07:43:43.988Z,101218.53
2022-07-29T07:46:11.295Z,101223.38
2022-07-29T07:48:38.637Z,101216.16
2022-07-29T07:51:05.948Z,101215.31
2022-07-29T07:53:34.990Z,101215.53
2022-07-29T07:56:11.386Z,101210.34
2022-07-29T07:58:39.729Z,101209.69
2022-07-29T08:01:07.700Z,101215.41
2022-07-29T08:03:35.443Z,101199.94
2022-07-29T08:06:04.325Z,101202.75
2022-07-29T08:08:31.580Z,101206.25
2022-07-29T08:11:01.212Z,101206.44
2022-07-29T08:13:31.388Z,101214.59
2022-07-29T08:16:01.290Z,101213.19
2022-07-29T08:18:31.077Z,101205.97
2022-07-29T08:20:59.189Z,101209.38
2022-07-29T08:23:46.514Z,101207.09
2022-07-29T08:26:17.279Z,101207.50
2022-07-29T08:28:46.801Z,101201.50
2022-07-29T08:31:14.854Z,101199.16
2022-07-29T08:33:43.424Z,101200.97
2022-07-29T08:36:10.867Z,101206.97
2022-07-29T08:38:38.194Z,101203.91
2022-07-29T08:41:05.633Z,101203.47
2022-07-29T08:43:33.133Z,101196.13
2022-07-29T08:46:01.472Z,101197.13
2022-07-29T08:48:28.881Z,101184.38
2022-07-29T08:50:57.481Z,101186.28
2022-07-29T08:53:27.976Z,101183.75
2022-07-29T08:55:56.111Z,101179.13
2022-07-29T08:58:26.125Z,101176.63
2022-07-29T09:00:55.979Z,101179.56
2022-07-29T09:03:30.596Z,101185.88
2022-07-29T09:06:02.329Z,101174.97
2022-07-29T09:08:31.500Z,101184.59
2022-07-29T09:10:59.431Z,101182.53
2022-07-29T09:13:27.379Z,101175.59
2022-07-29T09:15:54.976Z,101176.81
2022-07-29T09:18:37.238Z,101175.56
2022-07-29T09:21:24.881Z,101168.63
2022-07-29T09:24:02.137Z,101168.84
2022-07-29T09:26:31.852Z,101165.63
2022-07-29T09:29:00.164Z,101162.00
2022-07-29T09:31:36.210Z,101157.34
2022-07-29T09:34:04.672Z,101158.31
2022-07-29T09:36:32.055Z,101155.84
2022-07-29T09:39:03.788Z,101142.66
2022-07-29T09:41:54.602Z,101140.81
2022-07-29T09:44:23.342Z,101132.44
2022-07-29T09:47:08.145Z,101127.00
2022-07-29T09:50:00.753Z,101123.66
2022-07-29T09:52:29.689Z,101129.91
2022-07-29T09:55:07.581Z,101128.31
2022-07-29T09:57:34.905Z,101127.47
2022-07-29T10:00:13.950Z,101126.81
2022-07-29T10:02:44.908Z,101134.13
2022-07-29T10:05:27.072Z,101121.66
2022-07-29T10:08:04.630Z,101133.19
2022-07-29T10:12:01.483Z,101116.16
2022-07-29T10:14:30.648Z,101115.25
2022-07-29T10:16:58.815Z,101115.34
2022-07-29T10:19:26.277Z,101118.44
2022-07-29T10:21:57.917Z,101114.38
2022-07-29T10:24:29.287Z,101117.78
2022-07-29T10:26:57.983Z,101116.00
2022-07-29T10:29:52.234Z,101110.50
2022-07-29T10:32:37.443Z,101101.69
2022-07-29T10:35:13.436Z,101099.06
2022-07-29T10:38:06.728Z,101100.50
2022-07-29T10:41:08.904Z,101099.19
2022-07-29T10:43:44.671Z,101087.03
2022-07-29T10:46:15.527Z,101087.84
2022-07-29T10:49:05.519Z,101077.22
2022-07-29T10:51:57.806Z,101062.38
2022-07-29T10:54:34.786Z,101062.22
2022-07-29T10:57:14.497Z,101057.94
2022-07-29T10:59:44.178Z,101051.88
2022-07-29T11:02:42.699Z,101052.66
2022-07-29T11:05:13.869Z,101054.47
2022-07-29T11:08:21.218Z,101053.75
2022-07-29T11:11:15.892Z,101055.31
2022-07-29T11:13:44.829Z,101053.06
2022-07-29T11:16:16.116Z,101046.66
2022-07-29T11:19:11.533Z,101045.72
2022-07-29T11:21:54.712Z,101046.56
2022-07-29T11:24:33.361Z,101049.69
2022-07-29T11:27:13.375Z,101046.47
2022-07-29T11:29:58.503Z,101046.72
2022-07-29T11:32:37.545Z,101041.56
2022-07-29T11:35:36.986Z,101033.34
2022-07-29T11:38:31.823Z,101031.91
2022-07-29T11:41:30.115Z,101031.88
2022-07-29T11:44:01.408Z,101032.25
2022-07-29T11:46:53.868Z,101037.72
2022-07-29T11:49:32.325Z,101034.03
2022-07-29T11:54:57.866Z,101021.38
2022-07-29T11:57:36.545Z,101024.34
2022-07-29T12:03:04.079Z,101012.59
2022-07-29T12:05:52.037Z,101008.63
2022-07-29T12:07:02.431Z,101019.38
2022-07-29T12:08:22.675Z,101002.78
2022-07-29T12:10:51.659Z,100996.81
2022-07-29T12:13:21.194Z,100998.69
2022-07-29T12:15:59.993Z,101008.19
2022-07-29T12:18:27.910Z,100995.34
2022-07-29T12:21:05.665Z,100991.38
2022-07-29T12:23:34.794Z,100990.50
2022-07-29T12:26:11.133Z,100989.53
2022-07-29T12:28:49.819Z,100984.69
2022-07-29T12:31:41.887Z,100980.03
2022-07-29T12:34:05.112Z,100974.00
2022-07-29T12:36:33.428Z,100959.28
2022-07-29T12:39:00.892Z,100952.97
2022-07-29T12:41:31.575Z,100947.22
2022-07-29T12:43:59.087Z,100952.69
2022-07-29T12:46:26.529Z,100947.97
2022-07-29T12:48:58.416Z,100936.66
2022-07-29T12:51:34.517Z,100939.75
2022-07-29T12:54:07.169Z,100932.97
2022-07-29T12:56:43.564Z,100935.44
2022-07-29T12:59:15.452Z,100932.91
2022-07-29T13:01:44.291Z,100926.66
2022-07-29T13:04:12.065Z,100929.88
2022-07-29T13:06:45.894Z,100935.72
2022-07-29T13:09:18.428Z,100939.25
2022-07-29T13:11:48.741Z,100934.16
2022-07-29T13:14:34.863Z,100934.75
2022-07-29T13:17:06.278Z,100934.94
2022-07-29T13:19:51.165Z,100930.94
2022-07-29T13:22:20.552Z,100922.78
2022-07-29T13:25:04.613Z,100921.56
2022-07-29T13:27:34.648Z,100914.41
2022-07-29T13:30:03.954Z,100909.22
2022-07-29T13:32:31.736Z,100908.00
2022-07-29T13:35:05.410Z,100900.97
2022-07-29T13:37:36.915Z,100904.19
2022-07-29T13:40:06.290Z,100891.72
2022-07-29T13:42:34.246Z,100889.91
2022-07-29T13:45:02.713Z,100879.22
2022-07-29T13:47:32.529Z,100869.88
2022-07-29T13:50:02.084Z,100858.66
2022-07-29T13:52:29.866Z,100852.59
2022-07-29T13:54:57.452Z,100851.25
2022-07-29T13:57:25.136Z,100847.69
2022-07-29T13:59:54.310Z,100845.28
2022-07-29T14:02:25.293Z,100852.47
2022-07-29T14:04:56.627Z,100850.13
2022-07-29T14:07:24.304Z,100849.94
2022-07-29T14:09:52.193Z,100850.88
2022-07-29T14:12:20.229Z,100839.50
2022-07-29T14:14:47.568Z,100844.47
2022-07-29T14:17:15.776Z,100832.25
2022-07-29T14:19:43.183Z,100834.09
2022-07-29T14:22:11.008Z,100834.88
2022-07-29T14:24:38.929Z,100832.63
2022-07-29T14:27:07.715Z,100840.44
2022-07-29T14:29:38.332Z,100837.28
2022-07-29T14:32:08.041Z,100837.97
2022-07-29T14:34:37.230Z,100838.56
2022-07-29T14:37:06.578Z,100842.22
2022-07-29T14:39:42.135Z,100850.28
2022-07-29T14:42:12.438Z,100859.25
2022-07-29T14:44:48.369Z,100856.09
2022-07-29T14:47:15.886Z,100865.09
2022-07-29T14:49:43.237Z,100860.47
2022-07-29T14:52:13.941Z,100860.91
2022-07-29T14:54:41.424Z,100860.41
2022-07-29T14:57:08.687Z,100851.34
2022-07-29T14:59:36.306Z,100854.69
2022-07-29T15:02:04.042Z,100848.97
2022-07-29T15:04:31.820Z,100867.47
2022-07-29T15:06:59.136Z,100877.06
2022-07-29T15:09:26.373Z,100888.44
2022-07-29T15:12:31.678Z,100903.28
2022-07-29T15:14:59.378Z,100923.53
2022-07-29T15:17:26.721Z,100945.59
2022-07-29T15:23:39.573Z,100928.72
2022-07-29T15:26:09.147Z,100917.44
2022-07-29T15:28:36.513Z,100918.25
2022-07-29T15:31:04.883Z,100914.03
2022-07-29T15:33:32.525Z,100908.06
2022-07-29T15:35:59.938Z,100897.59
2022-07-29T15:38:28.719Z,100894.44
2022-07-29T15:40:57.379Z,100898.94
2022-07-29T15:43:24.723Z,100904.91
2022-07-29T15:46:12.855Z,100919.31
2022-07-29T15:48:40.549Z,100949.00
2022-07-29T15:51:07.818Z,100994.16
2022-07-29T15:53:35.415Z,101011.03
2022-07-29T15:56:03.038Z,101035.59
2022-07-29T15:58:31.012Z,101056.44
2022-07-29T16:00:58.801Z,101056.13
2022-07-29T16:03:26.171Z,101066.88
2022-07-29T16:05:53.380Z,101082.63
2022-07-29T16:08:20.903Z,101068.13
2022-07-29T16:10:48.171Z,101066.81
2022-07-29T16:13:17.014Z,101058.06
2022-07-29T16:15:46.331Z,101044.00
2022-07-29T16:18:30.698Z,101014.66
2022-07-29T16:20:58.487Z,100950.00
2022-07-29T16:23:25.735Z,100922.34
2022-07-29T16:26:01.199Z,100930.72
2022-07-29T16:28:29.761Z,100944.78
2022-07-29T16:30:57.452Z,100958.34
2022-07-29T16:33:25.143Z,100964.19
2022-07-29T16:35:52.796Z,100964.16
2022-07-29T16:38:20.209Z,100962.16
2022-07-29T16:40:47.621Z,100956.38
2022-07-29T16:43:14.936Z,100954.66
2022-07-29T16:45:45.899Z,100944.84
2022-07-29T16:48:14.673Z,100955.81
2022-07-29T16:50:43.278Z,100953.34
2022-07-29T16:53:11.138Z,100960.25
2022-07-29T16:55:38.661Z,100962.88
2022-07-29T16:58:10.516Z,100961.78
2022-07-29T17:00:38.484Z,100963.66
2022-07-29T17:03:05.731Z,100950.94
2022-07-29T17:05:50.308Z,100949.63
2022-07-29T17:08:20.126Z,100950.72
2022-07-29T17:10:47.614Z,100979.53
2022-07-29T17:13:14.865Z,100972.03
2022-07-29T17:15:45.197Z,100963.97
2022-07-29T17:18:13.092Z,100960.56
2022-07-29T17:20:42.042Z,100955.19
2022-07-29T17:23:09.514Z,100966.16
2022-07-29T17:25:36.743Z,100964.63
2022-07-29T17:28:04.133Z,100965.09
2022-07-29T17:30:31.335Z,100962.53
2022-07-29T17:32:58.931Z,100974.09
2022-07-29T17:35:44.599Z,100973.38
2022-07-29T17:38:11.904Z,100971.22
2022-07-29T17:40:39.176Z,100983.50
2022-07-29T17:43:09.200Z,100980.50
2022-07-29T17:45:49.901Z,100984.78
2022-07-29T17:48:19.381Z,100980.09
2022-07-29T17:50:47.942Z,100988.63
2022-07-29T17:53:16.245Z,101004.13
2022-07-29T17:55:45.707Z,101012.84
2022-07-29T17:58:13.232Z,101008.22
2022-07-29T18:00:41.025Z,101008.84
2022-07-29T18:03:09.077Z,101010.22
2022-07-29T18:05:36.731Z,101012.63
2022-07-29T18:08:04.210Z,101007.75
2022-07-29T18:10:31.524Z,101007.94
2022-07-29T18:12:58.928Z,100998.81
2022-07-29T18:15:26.419Z,100986.50
2022-07-29T18:17:57.610Z,100969.94
2022-07-29T18:20:26.424Z,100971.63
2022-07-29T18:22:53.697Z,100987.19
2022-07-29T18:25:21.002Z,100982.16
2022-07-29T18:27:48.316Z,100978.91
2022-07-29T18:30:16.130Z,100984.13
2022-07-29T18:32:59.200Z,100983.16
2022-07-29T18:35:31.666Z,100984.50
2022-07-29T18:38:01.820Z,100978.28
2022-07-29T18:40:30.200Z,100991.09
2022-07-29T18:42:57.823Z,100997.38
2022-07-29T18:45:28.643Z,101001.09
2022-07-29T18:47:56.688Z,101002.44
2022-07-29T18:50:29.415Z,100998.91
2022-07-29T18:52:58.675Z,101005.59
2022-07-29T18:55:26.624Z,101005.28
2022-07-29T18:57:55.832Z,101010.31
2022-07-29T19:00:25.286Z,101025.84
2022-07-29T19:02:53.193Z,101020.44
2022-07-29T19:05:21.065Z,101029.75
2022-07-29T19:07:48.348Z,101025.19
2022-07-29T19:10:15.604Z,101032.13
2022-07-29T19:12:43.035Z,101041.59
2022-07-29T19:15:10.802Z,101051.41
2022-07-29T19:17:38.827Z,101053.25
2022-07-29T19:20:07.649Z,101078.72
2022-07-29T19:22:35.143Z,101102.19
2022-07-29T19:25:02.497Z,101106.75
2022-07-29T19:27:29.814Z,101087.00
2022-07-29T19:29:59.387Z,101075.03
2022-07-29T19:32:27.271Z,101068.09
2022-07-29T19:35:13.231Z,101062.19
2022-07-29T19:37:40.501Z,101053.94
2022-07-29T19:40:08.200Z,101049.38
2022-07-29T19:42:35.384Z,101029.97
2022-07-29T19:45:02.677Z,101021.03
2022-07-29T19:47:29.936Z,101011.94
2022-07-29T19:49:57.235Z,101024.44
2022-07-29T19:52:24.484Z,101040.06
2022-07-29T19:54:51.864Z,101044.59
2022-07-29T19:57:19.373Z,101048.31
2022-07-29T19:59:46.609Z,101058.44
2022-07-29T20:02:13.907Z,101062.47
2022-07-29T20:04:42.902Z,101082.38
2022-07-29T20:07:10.213Z,101078.84
2022-07-29T20:09:39.986Z,101097.38
2022-07-29T20:12:11.008Z,101106.00
2022-07-29T20:14:38.452Z,101110.03
2022-07-29T20:17:06.080Z,101109.88
2022-07-29T20:19:33.373Z,101105.47
2022-07-29T20:22:00.983Z,101107.66
2022-07-29T20:24:28.331Z,101110.19
2022-07-29T20:26:55.641Z,101113.22
2022-07-29T20:29:22.992Z,101106.97
2022-07-29T20:31:52.277Z,101099.03
2022-07-29T20:34:24.188Z,101109.97
2022-07-29T20:36:51.500Z,101112.47
2022-07-29T20:39:20.993Z,101115.50
2022-07-29T20:41:48.953Z,101119.53
2022-07-29T20:44:18.793Z,101107.91
2022-07-29T20:46:46.252Z,101114.13
2022-07-29T20:49:13.561Z,101115.88
2022-07-29T20:51:43.583Z,101123.28
2022-07-29T20:54:11.845Z,101126.50
2022-07-29T20:56:39.454Z,101126.50
2022-07-29T20:59:06.875Z,101125.31
2022-07-29T21:01:35.067Z,101123.78
2022-07-29T21:04:03.085Z,101123.81
2022-07-29T21:06:30.884Z,101130.72
2022-07-29T21:08:59.660Z,101132.25
2022-07-29T21:11:44.228Z,101133.47
2022-07-29T21:14:23.163Z,101128.06
2022-07-29T21:16:50.685Z,101127.19
2022-07-29T21:19:17.911Z,101134.81
2022-07-29T21:21:45.149Z,101145.25
2022-07-29T21:24:12.475Z,101144.78
2022-07-29T21:26:39.689Z,101145.09
2022-07-29T21:29:06.937Z,101146.94
2022-07-29T21:31:34.147Z,101140.19
2022-07-29T21:34:01.386Z,101133.94
2022-07-29T21:36:47.676Z,101137.28
2022-07-29T21:39:15.859Z,101134.22
2022-07-29T21:41:43.080Z,101150.25
2022-07-29T21:44:10.326Z,101160.50
2022-07-29T21:46:37.619Z,101172.00
2022-07-29T21:49:05.018Z,101177.16
2022-07-29T21:51:32.358Z,101171.47
2022-07-29T21:53:59.651Z,101168.88
2022-07-29T21:56:27.820Z,101179.31
2022-07-29T21:58:56.107Z,101178.19
2022-07-29T22:01:24.004Z,101172.94
2022-07-29T22:03:51.432Z,101166.41
2022-07-29T22:06:19.040Z,101163.31
2022-07-29T22:08:46.310Z,101168.09
2022-07-29T22:11:13.612Z,101177.28
2022-07-29T22:13:40.836Z,101180.13
2022-07-29T22:16:10.102Z,101168.50
2022-07-29T22:18:37.400Z,101169.66
2022-07-29T22:21:04.618Z,101170.28
2022-07-29T22:23:31.832Z,101172.97
2022-07-29T22:25:59.076Z,101173.97
2022-07-29T22:28:26.279Z,101183.09
2022-07-29T22:30:53.538Z,101187.63
2022-07-29T22:33:20.851Z,101179.88
2022-07-29T22:35:49.215Z,101188.94
2022-07-29T22:38:17.748Z,101191.44
2022-07-29T22:40:45.315Z,101184.25
2022-07-29T22:43:12.878Z,101180.16
2022-07-29T22:45:40.103Z,101180.31
2022-07-29T22:48:07.436Z,101174.22
2022-07-29T22:50:34.707Z,101180.13
2022-07-29T22:53:01.907Z,101176.94
2022-07-29T22:55:29.125Z,101172.50
2022-07-29T22:57:56.374Z,101175.25
2022-07-29T23:00:23.981Z,101176.56
2022-07-29T23:02:51.193Z,101179.25
2022-07-29T23:05:18.548Z,101174.22
2022-07-29T23:07:45.833Z,101168.72
2022-07-29T23:10:13.161Z,101166.31
2022-07-29T23:12:40.386Z,101165.84
2022-07-29T23:15:07.873Z,101157.41
2022-07-29T23:17:36.050Z,101163.09
2022-07-29T23:20:09.936Z,101159.03
2022-07-29T23:22:37.171Z,101166.91
2022-07-29T23:25:06.182Z,101157.56
2022-07-29T23:27:33.629Z,101148.81
2022-07-29T23:30:00.883Z,101144.22
2022-07-29T23:32:28.165Z,101148.38
2022-07-29T23:34:55.463Z,101137.94
2022-07-29T23:37:22.924Z,101131.47
2022-07-29T23:39:50.237Z,101132.03
2022-07-29T23:42:17.519Z,101140.34
2022-07-29T23:44:44.748Z,101134.66
2022-07-29T23:47:11.959Z,101144.41
2022-07-29T23:49:39.364Z,101147.59
2022-07-29T23:52:06.760Z,101140.69
2022-07-29T23:54:34.015Z,101139.81
2022-07-29T23:57:01.486Z,101132.72
2022-07-29T23:59:28.970Z,101129.91
